sensor_id;sensor_type;location;lat;lon;timestamp;pressure;altitude;pressure_sealevel;temperature;humidity
28797;BME280;24974;54.444;18.560;2023-03-02T00:01:03;102365.28;;;5.23;61.36
28797;BME280;24974;54.444;18.560;2023-03-02T00:03:39;102369.72;;;5.48;61.15
28797;BME280;24974;54.444;18.560;2023-03-02T00:06:11;102358.47;;;5.02;62.46
28797;BME280;24974;54.444;18.560;2023-03-02T00:08:42;102353.72;;;5.40;61.15
28797;BME280;24974;54.444;18.560;2023-03-02T00:11:13;102366.19;;;5.47;60.69
28797;BME280;24974;54.444;18.560;2023-03-02T00:13:45;102370.22;;;5.56;60.35
28797;BME280;24974;54.444;18.560;2023-03-02T00:16:15;102369.84;;;5.41;61.18
28797;BME280;24974;54.444;18.560;2023-03-02T00:18:46;102376.22;;;6.12;59.35
28797;BME280;24974;54.444;18.560;2023-03-02T00:21:17;102371.91;;;6.16;58.99
28797;BME280;24974;54.444;18.560;2023-03-02T00:23:48;102377.16;;;6.06;58.87
28797;BME280;24974;54.444;18.560;2023-03-02T00:26:19;102378.34;;;5.98;59.47
28797;BME280;24974;54.444;18.560;2023-03-02T00:28:50;102371.09;;;6.15;58.52
28797;BME280;24974;54.444;18.560;2023-03-02T00:31:21;102369.66;;;6.25;58.08
28797;BME280;24974;54.444;18.560;2023-03-02T00:33:52;102373.47;;;6.24;58.06
28797;BME280;24974;54.444;18.560;2023-03-02T00:36:24;102368.66;;;6.54;56.41
28797;BME280;24974;54.444;18.560;2023-03-02T00:38:55;102366.19;;;6.53;57.11
28797;BME280;24974;54.444;18.560;2023-03-02T00:41:27;102364.41;;;6.47;55.69
28797;BME280;24974;54.444;18.560;2023-03-02T00:43:58;102359.31;;;6.38;56.31
28797;BME280;24974;54.444;18.560;2023-03-02T00:46:29;102364.19;;;6.36;57.20
28797;BME280;24974;54.444;18.560;2023-03-02T00:49:00;102355.75;;;6.38;56.61
28797;BME280;24974;54.444;18.560;2023-03-02T00:51:31;102358.19;;;6.11;57.46
28797;BME280;24974;54.444;18.560;2023-03-02T00:54:02;102352.00;;;6.04;58.16
28797;BME280;24974;54.444;18.560;2023-03-02T00:56:34;102357.22;;;6.05;57.98
28797;BME280;24974;54.444;18.560;2023-03-02T00:59:09;102357.59;;;5.97;58.58
28797;BME280;24974;54.444;18.560;2023-03-02T06:39:53;102227.69;;;5.73;51.76
28797;BME280;24974;54.444;18.560;2023-03-02T06:42:26;102226.47;;;5.92;51.39
28797;BME280;24974;54.444;18.560;2023-03-02T06:44:57;102224.19;;;6.12;51.56
28797;BME280;24974;54.444;18.560;2023-03-02T06:47:28;102236.09;;;5.95;51.00
28797;BME280;24974;54.444;18.560;2023-03-02T06:49:59;102227.53;;;6.03;51.28
28797;BME280;24974;54.444;18.560;2023-03-02T06:52:30;102226.34;;;5.87;51.28
28797;BME280;24974;54.444;18.560;2023-03-02T06:55:02;102228.97;;;6.34;50.33
28797;BME280;24974;54.444;18.560;2023-03-02T06:57:33;102233.16;;;6.53;50.18
28797;BME280;24974;54.444;18.560;2023-03-02T07:00:08;102232.13;;;6.88;49.30
28797;BME280;24974;54.444;18.560;2023-03-02T07:02:41;102226.94;;;7.03;49.13
28797;BME280;24974;54.444;18.560;2023-03-02T07:05:12;102225.22;;;7.31;48.37
28797;BME280;24974;54.444;18.560;2023-03-02T07:07:43;102222.97;;;6.94;49.14
28797;BME280;24974;54.444;18.560;2023-03-02T07:10:15;102225.44;;;6.79;49.30
28797;BME280;24974;54.444;18.560;2023-03-02T07:12:45;102229.41;;;6.88;49.02
28797;BME280;24974;54.444;18.560;2023-03-02T07:15:17;102219.56;;;6.87;49.63
28797;BME280;24974;54.444;18.560;2023-03-02T07:17:48;102230.00;;;7.23;49.11
28797;BME280;24974;54.444;18.560;2023-03-02T07:20:19;102224.88;;;7.10;49.11
28797;BME280;24974;54.444;18.560;2023-03-02T07:22:49;102224.78;;;7.39;49.03
28797;BME280;24974;54.444;18.560;2023-03-02T07:25:20;102223.88;;;7.33;48.42
28797;BME280;24974;54.444;18.560;2023-03-02T07:27:51;102229.50;;;8.04;47.20
28797;BME280;24974;54.444;18.560;2023-03-02T07:30:23;102225.16;;;8.30;46.87
28797;BME280;24974;54.444;18.560;2023-03-02T07:32:54;102225.78;;;8.59;45.52
28797;BME280;24974;54.444;18.560;2023-03-02T07:35:25;102225.69;;;8.05;46.68
28797;BME280;24974;54.444;18.560;2023-03-02T07:37:55;102227.13;;;8.83;45.53
28797;BME280;24974;54.444;18.560;2023-03-02T07:40:26;102226.94;;;8.41;45.87
28797;BME280;24974;54.444;18.560;2023-03-02T07:42:57;102242.06;;;8.71;45.47
28797;BME280;24974;54.444;18.560;2023-03-02T07:45:28;102242.34;;;8.74;45.86
28797;BME280;24974;54.444;18.560;2023-03-02T07:47:59;102236.00;;;8.95;45.59
28797;BME280;24974;54.444;18.560;2023-03-02T07:50:30;102234.97;;;8.26;47.32
28797;BME280;24974;54.444;18.560;2023-03-02T07:53:01;102239.28;;;7.78;48.29
28797;BME280;24974;54.444;18.560;2023-03-02T07:55:32;102227.91;;;8.08;48.13
28797;BME280;24974;54.444;18.560;2023-03-02T07:58:03;102235.63;;;8.87;46.51
28797;BME280;24974;54.444;18.560;2023-03-02T08:00:34;102232.25;;;9.44;45.48
28797;BME280;24974;54.444;18.560;2023-03-02T08:03:06;102227.69;;;8.85;46.42
28797;BME280;24974;54.444;18.560;2023-03-02T08:05:36;102230.50;;;8.95;46.52
28797;BME280;24974;54.444;18.560;2023-03-02T08:08:07;102230.28;;;9.02;46.80
28797;BME280;24974;54.444;18.560;2023-03-02T08:10:38;102225.59;;;9.35;45.75
28797;BME280;24974;54.444;18.560;2023-03-02T08:13:09;102231.81;;;9.20;45.99
28797;BME280;24974;54.444;18.560;2023-03-02T08:15:40;102231.19;;;9.50;45.48
28797;BME280;24974;54.444;18.560;2023-03-02T08:18:11;102225.91;;;9.80;45.21
28797;BME280;24974;54.444;18.560;2023-03-02T08:20:42;102224.34;;;9.52;46.78
28797;BME280;24974;54.444;18.560;2023-03-02T08:23:12;102216.28;;;9.36;46.20
28797;BME280;24974;54.444;18.560;2023-03-02T08:25:43;102220.75;;;8.78;47.58
28797;BME280;24974;54.444;18.560;2023-03-02T08:28:14;102221.53;;;9.42;46.26
28797;BME280;24974;54.444;18.560;2023-03-02T08:30:54;102221.31;;;9.49;46.64
28797;BME280;24974;54.444;18.560;2023-03-02T08:33:26;102224.84;;;9.07;47.17
28797;BME280;24974;54.444;18.560;2023-03-02T08:36:03;102208.16;;;10.08;45.51
28797;BME280;24974;54.444;18.560;2023-03-02T08:38:35;102214.47;;;10.04;45.24
28797;BME280;24974;54.444;18.560;2023-03-02T08:41:10;102217.50;;;10.07;45.61
28797;BME280;24974;54.444;18.560;2023-03-02T08:43:42;102210.34;;;10.06;45.10
28797;BME280;24974;54.444;18.560;2023-03-02T08:46:16;102212.13;;;10.38;45.70
28797;BME280;24974;54.444;18.560;2023-03-02T08:48:47;102217.16;;;11.02;43.67
28797;BME280;24974;54.444;18.560;2023-03-02T08:51:22;102208.00;;;11.68;42.95
28797;BME280;24974;54.444;18.560;2023-03-02T08:53:54;102215.34;;;10.20;45.23
28797;BME280;24974;54.444;18.560;2023-03-02T08:56:26;102209.19;;;11.11;43.83
28797;BME280;24974;54.444;18.560;2023-03-02T08:59:03;102208.38;;;10.95;44.04
28797;BME280;24974;54.444;18.560;2023-03-02T09:01:36;102207.19;;;11.57;42.87
28797;BME280;24974;54.444;18.560;2023-03-02T09:04:08;102212.44;;;10.57;44.87
28797;BME280;24974;54.444;18.560;2023-03-02T09:06:41;102206.44;;;11.06;44.06
28797;BME280;24974;54.444;18.560;2023-03-02T09:09:13;102201.16;;;11.55;43.03
28797;BME280;24974;54.444;18.560;2023-03-02T09:11:44;102199.19;;;11.81;42.47
28797;BME280;24974;54.444;18.560;2023-03-02T09:14:15;102203.94;;;11.35;43.60
28797;BME280;24974;54.444;18.560;2023-03-02T09:16:46;102199.22;;;11.51;42.92
28797;BME280;24974;54.444;18.560;2023-03-02T09:19:19;102199.88;;;12.07;41.83
28797;BME280;24974;54.444;18.560;2023-03-02T09:21:50;102193.84;;;12.49;40.91
28797;BME280;24974;54.444;18.560;2023-03-02T09:24:21;102192.91;;;12.69;41.22
28797;BME280;24974;54.444;18.560;2023-03-02T09:26:52;102183.00;;;12.24;41.21
28797;BME280;24974;54.444;18.560;2023-03-02T09:29:23;102194.53;;;12.26;41.29
28797;BME280;24974;54.444;18.560;2023-03-02T09:31:54;102190.09;;;12.74;40.18
28797;BME280;24974;54.444;18.560;2023-03-02T09:34:25;102181.56;;;13.05;39.99
28797;BME280;24974;54.444;18.560;2023-03-02T09:36:56;102186.47;;;12.84;40.29
28797;BME280;24974;54.444;18.560;2023-03-02T09:39:27;102186.63;;;12.14;40.53
28797;BME280;24974;54.444;18.560;2023-03-02T09:45:24;102193.84;;;12.88;39.43
28797;BME280;24974;54.444;18.560;2023-03-02T09:56:33;102191.41;;;12.43;42.52
28797;BME280;24974;54.444;18.560;2023-03-02T10:02:24;102185.91;;;12.43;42.82
28797;BME280;24974;54.444;18.560;2023-03-02T10:04:59;102189.00;;;13.09;41.12
28797;BME280;24974;54.444;18.560;2023-03-02T10:07:34;102191.19;;;12.78;41.57
28797;BME280;24974;54.444;18.560;2023-03-02T10:10:34;102187.44;;;12.59;42.12
28797;BME280;24974;54.444;18.560;2023-03-02T10:13:18;102185.38;;;12.41;43.23
28797;BME280;24974;54.444;18.560;2023-03-02T10:16:06;102189.44;;;13.51;40.63
28797;BME280;24974;54.444;18.560;2023-03-02T10:21:43;102194.50;;;13.67;40.38
28797;BME280;24974;54.444;18.560;2023-03-02T10:24:23;102189.56;;;12.72;41.76
28797;BME280;24974;54.444;18.560;2023-03-02T10:27:23;102183.75;;;14.70;38.81
28797;BME280;24974;54.444;18.560;2023-03-02T10:30:02;102176.63;;;14.64;38.49
28797;BME280;24974;54.444;18.560;2023-03-02T10:32:41;102182.16;;;13.60;39.76
28797;BME280;24974;54.444;18.560;2023-03-02T10:35:15;102177.94;;;14.53;38.30
28797;BME280;24974;54.444;18.560;2023-03-02T10:37:49;102176.97;;;15.42;36.41
28797;BME280;24974;54.444;18.560;2023-03-02T10:45:59;102174.50;;;15.54;36.74
28797;BME280;24974;54.444;18.560;2023-03-02T10:48:32;102179.16;;;14.79;38.00
28797;BME280;24974;54.444;18.560;2023-03-02T10:51:34;102177.22;;;14.42;37.78
28797;BME280;24974;54.444;18.560;2023-03-02T10:56:47;102177.75;;;15.75;35.90
28797;BME280;24974;54.444;18.560;2023-03-02T11:02:46;102176.19;;;18.41;32.84
28797;BME280;24974;54.444;18.560;2023-03-02T11:04:55;102173.16;;;17.23;32.59
28797;BME280;24974;54.444;18.560;2023-03-02T11:07:27;102167.16;;;17.70;32.08
28797;BME280;24974;54.444;18.560;2023-03-02T11:10:04;102158.94;;;19.64;30.02
28797;BME280;24974;54.444;18.560;2023-03-02T11:12:36;102158.78;;;19.05;30.10
28797;BME280;24974;54.444;18.560;2023-03-02T11:18:57;102166.59;;;16.88;33.49
28797;BME280;24974;54.444;18.560;2023-03-02T11:21:37;102161.06;;;14.87;36.40
28797;BME280;24974;54.444;18.560;2023-03-02T11:24:49;102151.13;;;15.60;35.92
28797;BME280;24974;54.444;18.560;2023-03-02T11:27:26;102153.66;;;16.47;34.24
28797;BME280;24974;54.444;18.560;2023-03-02T11:30:12;102144.69;;;17.49;32.82
28797;BME280;24974;54.444;18.560;2023-03-02T11:32:50;102146.72;;;18.31;31.43
28797;BME280;24974;54.444;18.560;2023-03-02T11:38:45;102129.09;;;19.09;29.89
28797;BME280;24974;54.444;18.560;2023-03-02T11:41:04;102134.75;;;16.49;33.46
28797;BME280;24974;54.444;18.560;2023-03-02T11:43:36;102121.97;;;16.62;33.00
28797;BME280;24974;54.444;18.560;2023-03-02T11:46:15;102117.06;;;17.13;33.20
28797;BME280;24974;54.444;18.560;2023-03-02T11:48:50;102120.00;;;18.82;30.34
28797;BME280;24974;54.444;18.560;2023-03-02T11:51:28;102117.44;;;17.68;32.20
28797;BME280;24974;54.444;18.560;2023-03-02T11:54:04;102109.88;;;18.78;31.06
28797;BME280;24974;54.444;18.560;2023-03-02T11:56:37;102100.03;;;20.16;28.38
28797;BME280;24974;54.444;18.560;2023-03-02T11:59:18;102103.31;;;18.39;30.31
28797;BME280;24974;54.444;18.560;2023-03-02T12:01:52;102104.78;;;18.02;30.40
28797;BME280;24974;54.444;18.560;2023-03-02T12:04:36;102100.16;;;17.88;31.04
28797;BME280;24974;54.444;18.560;2023-03-02T12:07:22;102101.34;;;18.65;30.05
28797;BME280;24974;54.444;18.560;2023-03-02T12:10:23;102090.34;;;19.24;27.81
28797;BME280;24974;54.444;18.560;2023-03-02T12:13:17;102089.84;;;19.69;27.10
28797;BME280;24974;54.444;18.560;2023-03-02T12:15:50;102093.44;;;21.56;24.88
28797;BME280;24974;54.444;18.560;2023-03-02T12:21:10;102094.06;;;19.75;27.06
28797;BME280;24974;54.444;18.560;2023-03-02T12:31:52;102078.41;;;18.77;28.56
28797;BME280;24974;54.444;18.560;2023-03-02T12:36:57;102072.44;;;17.57;29.95
28797;BME280;24974;54.444;18.560;2023-03-02T12:39:37;102056.56;;;18.96;27.78
28797;BME280;24974;54.444;18.560;2023-03-02T12:48:01;102057.09;;;17.69;29.86
28797;BME280;24974;54.444;18.560;2023-03-02T12:50:36;102060.75;;;18.38;29.42
28797;BME280;24974;54.444;18.560;2023-03-02T12:53:16;102055.84;;;18.18;29.99
28797;BME280;24974;54.444;18.560;2023-03-02T12:55:48;102062.66;;;17.12;31.94
28797;BME280;24974;54.444;18.560;2023-03-02T12:58:22;102058.94;;;17.73;30.81
28797;BME280;24974;54.444;18.560;2023-03-02T13:01:00;102053.78;;;19.55;27.91
28797;BME280;24974;54.444;18.560;2023-03-02T13:03:31;102055.66;;;19.13;28.24
28797;BME280;24974;54.444;18.560;2023-03-02T13:06:04;102054.31;;;17.69;30.02
28797;BME280;24974;54.444;18.560;2023-03-02T13:08:45;102038.84;;;18.92;28.80
28797;BME280;24974;54.444;18.560;2023-03-02T13:11:25;102037.84;;;18.24;29.49
28797;BME280;24974;54.444;18.560;2023-03-02T13:13:58;102035.03;;;18.50;29.70
28797;BME280;24974;54.444;18.560;2023-03-02T13:16:32;102034.97;;;19.23;28.80
28797;BME280;24974;54.444;18.560;2023-03-02T13:19:10;102034.06;;;19.10;28.86
28797;BME280;24974;54.444;18.560;2023-03-02T13:21:44;102031.16;;;17.91;29.91
28797;BME280;24974;54.444;18.560;2023-03-02T13:24:28;102030.47;;;18.45;30.74
28797;BME280;24974;54.444;18.560;2023-03-02T13:27:06;102025.50;;;18.60;28.97
28797;BME280;24974;54.444;18.560;2023-03-02T13:29:37;102023.84;;;18.76;28.80
28797;BME280;24974;54.444;18.560;2023-03-02T13:32:40;102025.34;;;17.61;30.73
28797;BME280;24974;54.444;18.560;2023-03-02T13:35:24;102021.28;;;17.01;31.60
28797;BME280;24974;54.444;18.560;2023-03-02T13:38:12;102019.56;;;17.31;31.92
28797;BME280;24974;54.444;18.560;2023-03-02T13:40:47;102014.94;;;17.93;30.46
28797;BME280;24974;54.444;18.560;2023-03-02T13:46:01;102016.59;;;16.80;32.08
28797;BME280;24974;54.444;18.560;2023-03-02T13:48:32;102015.84;;;16.65;32.61
28797;BME280;24974;54.444;18.560;2023-03-02T13:51:15;102008.50;;;17.49;31.13
28797;BME280;24974;54.444;18.560;2023-03-02T13:53:55;102005.41;;;18.28;30.03
28797;BME280;24974;54.444;18.560;2023-03-02T13:56:39;102009.16;;;16.44;32.41
28797;BME280;24974;54.444;18.560;2023-03-02T13:59:12;101995.47;;;17.01;32.03
28797;BME280;24974;54.444;18.560;2023-03-02T14:01:44;102007.56;;;15.62;33.09
28797;BME280;24974;54.444;18.560;2023-03-02T14:04:19;102010.72;;;16.81;32.32
28797;BME280;24974;54.444;18.560;2023-03-02T14:06:52;101988.41;;;18.38;30.04
28797;BME280;24974;54.444;18.560;2023-03-02T14:09:23;101996.06;;;16.89;31.68
28797;BME280;24974;54.444;18.560;2023-03-02T14:11:56;101996.81;;;16.50;32.27
28797;BME280;24974;54.444;18.560;2023-03-02T14:14:28;101982.50;;;16.88;31.78
28797;BME280;24974;54.444;18.560;2023-03-02T14:17:14;101982.72;;;16.15;33.12
28797;BME280;24974;54.444;18.560;2023-03-02T14:19:46;101978.50;;;15.59;33.61
28797;BME280;24974;54.444;18.560;2023-03-02T14:22:24;101974.34;;;17.00;31.56
28797;BME280;24974;54.444;18.560;2023-03-02T14:24:56;101968.91;;;16.24;32.86
28797;BME280;24974;54.444;18.560;2023-03-02T14:27:28;101971.56;;;15.84;33.33
28797;BME280;24974;54.444;18.560;2023-03-02T14:30:00;101971.06;;;14.91;35.04
28797;BME280;24974;54.444;18.560;2023-03-02T14:32:31;101972.31;;;14.71;36.14
28797;BME280;24974;54.444;18.560;2023-03-02T14:35:03;101958.25;;;16.17;33.69
28797;BME280;24974;54.444;18.560;2023-03-02T14:37:34;101959.19;;;15.32;34.42
28797;BME280;24974;54.444;18.560;2023-03-02T14:40:07;101956.53;;;14.86;34.85
28797;BME280;24974;54.444;18.560;2023-03-02T14:42:43;101951.91;;;14.21;36.33
28797;BME280;24974;54.444;18.560;2023-03-02T14:45:14;101950.88;;;15.18;35.00
28797;BME280;24974;54.444;18.560;2023-03-02T14:47:46;101958.47;;;13.92;36.92
28797;BME280;24974;54.444;18.560;2023-03-02T14:50:18;101944.88;;;13.21;38.91
28797;BME280;24974;54.444;18.560;2023-03-02T14:52:52;101951.81;;;12.46;40.39
28797;BME280;24974;54.444;18.560;2023-03-02T14:55:29;101953.22;;;11.81;41.99
28797;BME280;24974;54.444;18.560;2023-03-02T14:58:24;101956.00;;;11.21;43.10
28797;BME280;24974;54.444;18.560;2023-03-02T15:00:57;101953.72;;;10.79;44.87
28797;BME280;24974;54.444;18.560;2023-03-02T15:03:28;101956.06;;;11.16;43.69
28797;BME280;24974;54.444;18.560;2023-03-02T15:06:00;101954.56;;;10.64;44.04
28797;BME280;24974;54.444;18.560;2023-03-02T15:08:31;101953.25;;;10.41;45.14
28797;BME280;24974;54.444;18.560;2023-03-02T15:11:02;101939.66;;;10.85;44.08
28797;BME280;24974;54.444;18.560;2023-03-02T15:13:33;101940.06;;;10.43;45.48
28797;BME280;24974;54.444;18.560;2023-03-02T15:16:04;101935.38;;;9.62;47.10
28797;BME280;24974;54.444;18.560;2023-03-02T15:18:35;101932.66;;;9.98;47.11
28797;BME280;24974;54.444;18.560;2023-03-02T15:21:06;101940.69;;;8.91;48.92
28797;BME280;24974;54.444;18.560;2023-03-02T15:23:37;101938.38;;;8.73;49.53
28797;BME280;24974;54.444;18.560;2023-03-02T15:26:10;101930.44;;;9.69;47.42
28797;BME280;24974;54.444;18.560;2023-03-02T15:28:41;101941.06;;;9.25;48.96
28797;BME280;24974;54.444;18.560;2023-03-02T15:31:14;101927.59;;;8.51;50.88
28797;BME280;24974;54.444;18.560;2023-03-02T15:33:45;101942.47;;;8.28;52.22
28797;BME280;24974;54.444;18.560;2023-03-02T15:36:16;101929.38;;;7.98;52.32
28797;BME280;24974;54.444;18.560;2023-03-02T15:38:48;101931.69;;;8.16;51.42
28797;BME280;24974;54.444;18.560;2023-03-02T15:41:20;101923.16;;;7.70;53.15
28797;BME280;24974;54.444;18.560;2023-03-02T15:43:52;101912.72;;;8.41;51.93
28797;BME280;24974;54.444;18.560;2023-03-02T15:46:23;101911.06;;;8.40;51.47
28797;BME280;24974;54.444;18.560;2023-03-02T15:48:54;101901.19;;;8.34;51.25
28797;BME280;24974;54.444;18.560;2023-03-02T15:51:25;101921.78;;;8.05;52.82
28797;BME280;24974;54.444;18.560;2023-03-02T15:53:56;101913.97;;;8.24;51.54
28797;BME280;24974;54.444;18.560;2023-03-02T15:56:28;101913.56;;;8.42;51.20
28797;BME280;24974;54.444;18.560;2023-03-02T15:58:58;101918.16;;;7.94;52.87
28797;BME280;24974;54.444;18.560;2023-03-02T16:01:29;101922.31;;;7.43;53.43
28797;BME280;24974;54.444;18.560;2023-03-02T16:04:00;101910.28;;;7.17;54.46
28797;BME280;24974;54.444;18.560;2023-03-02T16:06:30;101911.25;;;7.60;54.20
28797;BME280;24974;54.444;18.560;2023-03-02T16:09:01;101913.59;;;7.46;54.23
28797;BME280;24974;54.444;18.560;2023-03-02T16:11:32;101914.28;;;6.82;54.96
28797;BME280;24974;54.444;18.560;2023-03-02T16:14:03;101912.13;;;6.45;57.18
28797;BME280;24974;54.444;18.560;2023-03-02T16:16:34;101914.94;;;6.72;56.68
28797;BME280;24974;54.444;18.560;2023-03-02T16:19:05;101911.53;;;6.82;56.52
28797;BME280;24974;54.444;18.560;2023-03-02T16:21:36;101906.97;;;6.49;57.03
28797;BME280;24974;54.444;18.560;2023-03-02T16:24:07;101909.66;;;6.88;56.03
28797;BME280;24974;54.444;18.560;2023-03-02T16:26:38;101912.66;;;7.35;55.42
28797;BME280;24974;54.444;18.560;2023-03-02T16:29:10;101916.84;;;6.94;56.69
28797;BME280;24974;54.444;18.560;2023-03-02T16:31:44;101923.34;;;6.88;55.49
28797;BME280;24974;54.444;18.560;2023-03-02T16:34:15;101918.56;;;6.78;56.51
28797;BME280;24974;54.444;18.560;2023-03-02T16:36:47;101917.56;;;6.84;56.00
28797;BME280;24974;54.444;18.560;2023-03-02T16:39:18;101907.72;;;6.23;57.44
28797;BME280;24974;54.444;18.560;2023-03-02T16:41:48;101909.63;;;6.61;56.58
28797;BME280;24974;54.444;18.560;2023-03-02T16:44:20;101903.84;;;6.19;57.51
28797;BME280;24974;54.444;18.560;2023-03-02T16:46:52;101901.03;;;6.13;57.85
28797;BME280;24974;54.444;18.560;2023-03-02T16:49:23;101908.28;;;6.63;56.88
28797;BME280;24974;54.444;18.560;2023-03-02T16:51:57;101909.34;;;6.62;56.50
28797;BME280;24974;54.444;18.560;2023-03-02T16:54:28;101901.59;;;6.54;56.89
28797;BME280;24974;54.444;18.560;2023-03-02T16:56:59;101907.38;;;7.01;55.52
28797;BME280;24974;54.444;18.560;2023-03-02T16:59:30;101901.94;;;6.19;58.00
28797;BME280;24974;54.444;18.560;2023-03-02T17:02:01;101917.38;;;5.80;59.12
28797;BME280;24974;54.444;18.560;2023-03-02T17:04:32;101909.88;;;5.70;59.49
28797;BME280;24974;54.444;18.560;2023-03-02T17:07:07;101904.00;;;5.61;60.08
28797;BME280;24974;54.444;18.560;2023-03-02T17:09:38;101913.09;;;6.17;58.27
28797;BME280;24974;54.444;18.560;2023-03-02T17:12:11;101910.44;;;5.72;59.08
28797;BME280;24974;54.444;18.560;2023-03-02T17:14:42;101907.19;;;5.75;59.26
28797;BME280;24974;54.444;18.560;2023-03-02T17:17:13;101897.22;;;5.19;61.55
28797;BME280;24974;54.444;18.560;2023-03-02T17:19:44;101906.03;;;5.54;59.98
28797;BME280;24974;54.444;18.560;2023-03-02T17:22:14;101896.81;;;6.06;59.03
28797;BME280;24974;54.444;18.560;2023-03-02T17:24:46;101907.03;;;5.82;59.43
28797;BME280;24974;54.444;18.560;2023-03-02T17:27:16;101905.59;;;5.91;58.80
28797;BME280;24974;54.444;18.560;2023-03-02T17:29:47;101907.06;;;6.54;56.90
28797;BME280;24974;54.444;18.560;2023-03-02T17:32:18;101904.75;;;6.07;59.31
28797;BME280;24974;54.444;18.560;2023-03-02T17:34:49;101909.63;;;6.22;58.57
28797;BME280;24974;54.444;18.560;2023-03-02T17:37:20;101904.31;;;5.82;59.15
28797;BME280;24974;54.444;18.560;2023-03-02T17:39:51;101908.47;;;6.01;59.06
28797;BME280;24974;54.444;18.560;2023-03-02T17:42:22;101909.53;;;6.00;59.68
28797;BME280;24974;54.444;18.560;2023-03-02T17:44:53;101912.41;;;5.15;61.03
28797;BME280;24974;54.444;18.560;2023-03-02T17:47:24;101905.81;;;6.06;59.35
28797;BME280;24974;54.444;18.560;2023-03-02T17:49:55;101898.84;;;5.65;61.14
28797;BME280;24974;54.444;18.560;2023-03-02T17:52:27;101896.13;;;5.65;60.04
28797;BME280;24974;54.444;18.560;2023-03-02T17:54:59;101898.09;;;5.53;60.13
28797;BME280;24974;54.444;18.560;2023-03-02T17:57:30;101904.91;;;6.34;58.16
28797;BME280;24974;54.444;18.560;2023-03-02T18:00:01;101901.69;;;6.59;57.51
28797;BME280;24974;54.444;18.560;2023-03-02T18:02:35;101900.53;;;6.55;57.47
28797;BME280;24974;54.444;18.560;2023-03-02T18:05:06;101900.38;;;6.45;58.09
28797;BME280;24974;54.444;18.560;2023-03-02T18:07:39;101897.81;;;6.00;59.33
28797;BME280;24974;54.444;18.560;2023-03-02T18:10:11;101899.41;;;5.96;58.94
28797;BME280;24974;54.444;18.560;2023-03-02T18:12:42;101891.75;;;5.47;60.49
28797;BME280;24974;54.444;18.560;2023-03-02T18:15:12;101881.00;;;5.57;60.15
28797;BME280;24974;54.444;18.560;2023-03-02T18:17:43;101882.59;;;6.04;59.67
28797;BME280;24974;54.444;18.560;2023-03-02T18:20:14;101893.22;;;5.38;61.21
28797;BME280;24974;54.444;18.560;2023-03-02T18:22:45;101882.59;;;5.87;59.69
28797;BME280;24974;54.444;18.560;2023-03-02T18:25:16;101877.03;;;6.15;59.04
28797;BME280;24974;54.444;18.560;2023-03-02T18:27:47;101885.13;;;5.60;60.67
28797;BME280;24974;54.444;18.560;2023-03-02T18:30:21;101877.13;;;5.87;59.23
28797;BME280;24974;54.444;18.560;2023-03-02T18:32:52;101879.09;;;6.47;58.26
28797;BME280;24974;54.444;18.560;2023-03-02T18:35:23;101877.63;;;6.01;58.98
28797;BME280;24974;54.444;18.560;2023-03-02T18:37:54;101874.81;;;6.51;58.15
28797;BME280;24974;54.444;18.560;2023-03-02T18:40:25;101877.34;;;6.36;58.31
28797;BME280;24974;54.444;18.560;2023-03-02T18:42:56;101886.69;;;6.62;57.56
28797;BME280;24974;54.444;18.560;2023-03-02T18:45:29;101888.34;;;6.85;56.79
28797;BME280;24974;54.444;18.560;2023-03-02T18:48:00;101889.22;;;6.68;56.49
28797;BME280;24974;54.444;18.560;2023-03-02T18:50:31;101889.41;;;6.84;56.73
28797;BME280;24974;54.444;18.560;2023-03-02T18:53:02;101892.06;;;6.57;57.33
28797;BME280;24974;54.444;18.560;2023-03-02T18:55:34;101897.00;;;7.04;55.66
28797;BME280;24974;54.444;18.560;2023-03-02T18:58:07;101888.97;;;7.46;54.75
28797;BME280;24974;54.444;18.560;2023-03-02T19:00:43;101900.53;;;6.77;56.14
28797;BME280;24974;54.444;18.560;2023-03-02T19:03:16;101892.84;;;6.13;58.02
28797;BME280;24974;54.444;18.560;2023-03-02T19:05:46;101885.00;;;6.39;57.40
28797;BME280;24974;54.444;18.560;2023-03-02T19:08:18;101883.75;;;6.90;56.19
28797;BME280;24974;54.444;18.560;2023-03-02T19:10:53;101880.84;;;7.24;55.36
28797;BME280;24974;54.444;18.560;2023-03-02T19:13:24;101878.69;;;7.04;56.02
28797;BME280;24974;54.444;18.560;2023-03-02T19:15:57;101879.69;;;7.20;55.32
28797;BME280;24974;54.444;18.560;2023-03-02T19:18:30;101874.09;;;6.83;55.70
28797;BME280;24974;54.444;18.560;2023-03-02T19:21:00;101870.00;;;6.58;55.96
28797;BME280;24974;54.444;18.560;2023-03-02T19:23:34;101863.56;;;6.69;56.47
28797;BME280;24974;54.444;18.560;2023-03-02T19:26:05;101864.38;;;6.09;58.26
28797;BME280;24974;54.444;18.560;2023-03-02T19:28:37;101867.06;;;6.43;57.16
28797;BME280;24974;54.444;18.560;2023-03-02T19:31:10;101852.88;;;6.46;57.05
28797;BME280;24974;54.444;18.560;2023-03-02T19:33:41;101863.50;;;5.87;58.87
28797;BME280;24974;54.444;18.560;2023-03-02T19:36:14;101857.22;;;6.03;58.10
28797;BME280;24974;54.444;18.560;2023-03-02T19:38:45;101859.00;;;5.30;60.64
28797;BME280;24974;54.444;18.560;2023-03-02T19:41:17;101856.28;;;5.30;60.71
28797;BME280;24974;54.444;18.560;2023-03-02T19:43:50;101852.72;;;6.14;58.59
28797;BME280;24974;54.444;18.560;2023-03-02T19:46:21;101847.81;;;5.94;58.44
28797;BME280;24974;54.444;18.560;2023-03-02T19:48:52;101839.88;;;6.53;56.53
28797;BME280;24974;54.444;18.560;2023-03-02T19:51:23;101841.34;;;5.67;59.72
28797;BME280;24974;54.444;18.560;2023-03-02T19:53:54;101845.25;;;6.48;57.35